Time;durP1;ratioP1;P1;durP2;ratioP2;P2;SDS_P1;SDS_P2;PMS_P1;PMS_P2;Temp;Humidity;BMP_temperature;BMP_pressure;BME280_temperature;BME280_humidity;BME280_pressure;Samples;Min_cycle;Max_cycle;Signal;HPM_P1;HPM_P2
2022/07/02 00:01:38;;;;;;;21.97;20.67;;;;;;;;;;5093028;28;20450;-68
2022/07/02 00:04:06;;;;;;;22.57;21.30;;;;;;;;;;5092832;28;20848;-68
2022/07/02 00:06:36;;;;;;;20.77;19.67;;;;;;;;;;5092781;28;20434;-68
2022/07/02 00:09:03;;;;;;;21.47;20.27;;;;;;;;;;5092905;28;20476;-68
2022/07/02 00:11:34;;;;;;;21.80;20.50;;;;;;;;;;5092738;28;20893;-68
2022/07/02 00:14:01;;;;;;;21.67;20.20;;;;;;;;;;5093048;28;20458;-68
2022/07/02 00:16:29;;;;;;;20.63;19.53;;;;;;;;;;5092683;28;20416;-68
2022/07/02 00:18:57;;;;;;;21.03;19.83;;;;;;;;;;5092753;28;20435;-68
2022/07/02 00:21:24;;;;;;;21.73;20.53;;;;;;;;;;5092907;28;20433;-68
2022/07/02 00:23:52;;;;;;;21.30;20.20;;;;;;;;;;5093167;28;20404;-68
2022/07/02 00:26:21;;;;;;;21.30;20.00;;;;;;;;;;5092876;28;20468;-68
2022/07/02 00:28:53;;;;;;;21.03;19.83;;;;;;;;;;5092435;28;20546;-68
2022/07/02 00:31:21;;;;;;;21.93;20.40;;;;;;;;;;5092840;28;20760;-68
2022/07/02 00:33:49;;;;;;;21.90;20.60;;;;;;;;;;5092766;28;20495;-68
2022/07/02 00:36:22;;;;;;;21.30;20.20;;;;;;;;;;5092405;28;20415;-68
2022/07/02 00:38:50;;;;;;;21.97;20.73;;;;;;;;;;5092699;28;20531;-68
2022/07/02 00:41:18;;;;;;;22.07;20.87;;;;;;;;;;5092660;28;20440;-69
2022/07/02 00:43:46;;;;;;;21.77;20.40;;;;;;;;;;5092384;28;20801;-68
2022/07/02 00:46:15;;;;;;;21.90;20.80;;;;;;;;;;5092654;28;20803;-68
2022/07/02 00:48:44;;;;;;;21.97;20.70;;;;;;;;;;5092254;28;20604;-68
2022/07/02 00:51:11;;;;;;;21.90;20.70;;;;;;;;;;5092637;28;20435;-68
2022/07/02 00:53:39;;;;;;;22.57;21.33;;;;;;;;;;5092349;28;20464;-67
2022/07/02 00:56:06;;;;;;;22.10;20.70;;;;;;;;;;5092734;28;20409;-68
2022/07/02 00:58:34;;;;;;;22.00;20.70;;;;;;;;;;5092578;28;20442;-68
2022/07/02 01:01:01;;;;;;;21.73;20.33;;;;;;;;;;5092538;28;20426;-67
2022/07/02 01:03:31;;;;;;;22.27;20.93;;;;;;;;;;5092551;28;20908;-68
2022/07/02 01:05:58;;;;;;;21.73;20.50;;;;;;;;;;5092514;28;20424;-68
2022/07/02 01:11:27;;;;;;;21.80;20.60;;;;;;;;;;5013752;28;20476;-68
2022/07/02 01:13:55;;;;;;;21.93;20.73;;;;;;;;;;5013625;28;20408;-68
2022/07/02 01:16:23;;;;;;;21.17;20.07;;;;;;;;;;5013760;28;20423;-68
2022/07/02 01:18:52;;;;;;;21.83;20.63;;;;;;;;;;5013516;28;20444;-68
2022/07/02 01:21:19;;;;;;;21.67;20.43;;;;;;;;;;5013607;28;20412;-68
2022/07/02 01:23:48;;;;;;;21.80;20.60;;;;;;;;;;5013650;28;20754;-68
2022/07/02 01:26:15;;;;;;;21.17;20.07;;;;;;;;;;5013506;28;20423;-68
2022/07/02 01:28:42;;;;;;;21.83;20.43;;;;;;;;;;5013447;28;20467;-68
2022/07/02 01:31:10;;;;;;;21.97;20.67;;;;;;;;;;5013470;28;20412;-68
2022/07/02 01:33:38;;;;;;;21.43;20.13;;;;;;;;;;5013369;28;20441;-68
2022/07/02 01:36:05;;;;;;;22.30;21.00;;;;;;;;;;5013339;28;20426;-68
2022/07/02 01:38:32;;;;;;;23.10;21.70;;;;;;;;;;5013215;28;20484;-68
2022/07/02 01:43:42;;;;;;;21.93;20.53;;;;;;;;;;5094382;28;20471;-68
2022/07/02 01:46:10;;;;;;;22.03;20.83;;;;;;;;;;5095521;28;20423;-68
2022/07/02 01:48:37;;;;;;;23.33;21.70;;;;;;;;;;5094861;28;20978;-68
2022/07/02 01:51:04;;;;;;;22.20;20.93;;;;;;;;;;5095454;28;20791;-68
2022/07/02 01:53:31;;;;;;;22.17;20.93;;;;;;;;;;5095086;28;20917;-68
2022/07/02 01:55:59;;;;;;;21.60;20.40;;;;;;;;;;5095190;28;20895;-68
2022/07/02 01:58:27;;;;;;;22.50;21.20;;;;;;;;;;5094990;28;20430;-68
2022/07/02 02:00:55;;;;;;;22.17;20.87;;;;;;;;;;5095524;28;20468;-68
2022/07/02 02:03:22;;;;;;;22.30;21.00;;;;;;;;;;5095214;28;20441;-68
2022/07/02 02:05:53;;;;;;;22.30;21.00;;;;;;;;;;5094951;28;20906;-68
2022/07/02 02:08:20;;;;;;;21.93;20.73;;;;;;;;;;5095095;28;20488;-68
2022/07/02 02:10:47;;;;;;;22.00;20.70;;;;;;;;;;5095169;28;20408;-68
2022/07/02 02:13:15;;;;;;;23.00;21.70;;;;;;;;;;5094728;28;20465;-67
2022/07/02 02:15:43;;;;;;;22.80;21.40;;;;;;;;;;5094494;28;20473;-68
2022/07/02 02:18:11;;;;;;;23.17;21.87;;;;;;;;;;5094249;28;20916;-68
2022/07/02 02:20:38;;;;;;;22.43;21.23;;;;;;;;;;5094185;28;20416;-68
2022/07/02 02:23:06;;;;;;;22.20;20.90;;;;;;;;;;5094792;28;20412;-68
2022/07/02 02:25:33;;;;;;;23.60;22.20;;;;;;;;;;5094829;28;20937;-68
2022/07/02 02:28:01;;;;;;;22.07;20.87;;;;;;;;;;5094404;28;20469;-68
2022/07/02 02:30:29;;;;;;;21.20;20.10;;;;;;;;;;5094558;28;20441;-67
2022/07/02 02:32:58;;;;;;;22.13;20.73;;;;;;;;;;5094310;28;20445;-68
2022/07/02 02:35:25;;;;;;;22.70;21.23;;;;;;;;;;5094560;28;20412;-68
2022/07/02 02:37:53;;;;;;;23.07;21.50;;;;;;;;;;5094550;28;20413;-68
2022/07/02 02:40:20;;;;;;;22.73;21.33;;;;;;;;;;5094501;28;20591;-68
2022/07/02 02:42:47;;;;;;;22.63;21.20;;;;;;;;;;5094126;28;20519;-68
2022/07/02 02:45:15;;;;;;;21.80;20.60;;;;;;;;;;5094436;28;20411;-68
2022/07/02 02:47:42;;;;;;;22.00;20.60;;;;;;;;;;5093928;28;20532;-68
2022/07/02 02:50:11;;;;;;;22.40;21.10;;;;;;;;;;5093840;28;20550;-68
2022/07/02 02:52:39;;;;;;;22.50;21.10;;;;;;;;;;5094162;28;20416;-68
2022/07/02 02:55:06;;;;;;;23.50;22.10;;;;;;;;;;5093782;28;20820;-67
2022/07/02 02:57:34;;;;;;;23.37;22.07;;;;;;;;;;5093836;28;20458;-68
2022/07/02 03:00:01;;;;;;;22.80;21.47;;;;;;;;;;5093778;28;20514;-68
2022/07/02 03:02:28;;;;;;;23.23;21.60;;;;;;;;;;5093947;28;20408;-68
2022/07/02 03:04:56;;;;;;;22.47;21.07;;;;;;;;;;5093694;28;20422;-68
2022/07/02 03:07:24;;;;;;;23.27;21.97;;;;;;;;;;5093787;28;20442;-68
2022/07/02 03:09:52;;;;;;;24.20;22.80;;;;;;;;;;5093890;28;20481;-67
2022/07/02 03:12:19;;;;;;;24.13;22.30;;;;;;;;;;5093868;28;20447;-68
2022/07/02 03:14:46;;;;;;;22.70;21.50;;;;;;;;;;5093411;28;20419;-68
2022/07/02 03:17:14;;;;;;;23.00;21.70;;;;;;;;;;5093474;28;20430;-68
2022/07/02 03:19:41;;;;;;;22.70;21.40;;;;;;;;;;5093794;28;20882;-68
2022/07/02 03:22:08;;;;;;;22.03;20.73;;;;;;;;;;5093856;28;20434;-68
2022/07/02 03:24:37;;;;;;;22.90;21.50;;;;;;;;;;5093450;28;20413;-68
2022/07/02 03:27:05;;;;;;;23.87;21.87;;;;;;;;;;5093664;28;20453;-67
2022/07/02 03:29:32;;;;;;;23.17;21.63;;;;;;;;;;5093511;28;20576;-68
2022/07/02 03:31:59;;;;;;;23.67;22.27;;;;;;;;;;5093611;28;20403;-68
2022/07/02 03:34:27;;;;;;;23.43;22.03;;;;;;;;;;5093373;28;20416;-68
2022/07/02 03:36:54;;;;;;;22.90;21.40;;;;;;;;;;5093199;28;20778;-68
2022/07/02 03:39:21;;;;;;;23.90;22.50;;;;;;;;;;5093149;28;20433;-68
2022/07/02 03:41:50;;;;;;;22.53;21.13;;;;;;;;;;5093084;28;20420;-68
2022/07/02 03:44:17;;;;;;;22.27;20.87;;;;;;;;;;5092954;28;20466;-68
2022/07/02 03:46:45;;;;;;;22.50;20.80;;;;;;;;;;5093262;28;20794;-68
2022/07/02 03:49:12;;;;;;;21.93;20.67;;;;;;;;;;5092876;28;20520;-68
2022/07/02 03:51:40;;;;;;;22.30;21.00;;;;;;;;;;5093336;28;20412;-68
2022/07/02 03:54:07;;;;;;;22.87;21.47;;;;;;;;;;5093182;28;20742;-68
2022/07/02 03:56:34;;;;;;;22.20;20.87;;;;;;;;;;5092854;28;20416;-68
2022/07/02 03:59:03;;;;;;;23.87;22.27;;;;;;;;;;5092944;28;20430;-68
2022/07/02 04:01:30;;;;;;;23.00;21.30;;;;;;;;;;5092848;28;20428;-68
2022/07/02 04:03:57;;;;;;;22.80;21.30;;;;;;;;;;5093069;28;20830;-68
2022/07/02 04:06:25;;;;;;;22.00;20.70;;;;;;;;;;5092894;28;20423;-68
2022/07/02 04:08:52;;;;;;;22.60;21.30;;;;;;;;;;5092639;28;20448;-68
2022/07/02 04:11:19;;;;;;;22.00;20.70;;;;;;;;;;5093084;28;20483;-68
2022/07/02 04:13:47;;;;;;;22.27;20.50;;;;;;;;;;5092686;28;20882;-68
2022/07/02 04:16:15;;;;;;;22.10;20.90;;;;;;;;;;5092984;28;20408;-68
2022/07/02 04:18:43;;;;;;;21.87;20.50;;;;;;;;;;5092843;28;20494;-68
2022/07/02 04:21:10;;;;;;;22.40;21.10;;;;;;;;;;5092934;28;20434;-68
2022/07/02 04:23:37;;;;;;;21.87;20.43;;;;;;;;;;5092911;28;20400;-68
2022/07/02 04:26:06;;;;;;;21.57;20.17;;;;;;;;;;5093132;28;20440;-68
2022/07/02 04:28:33;;;;;;;21.77;20.40;;;;;;;;;;5092549;28;20408;-68
2022/07/02 04:31:00;;;;;;;22.47;21.07;;;;;;;;;;5092549;28;20413;-68
2022/07/02 04:33:29;;;;;;;21.93;20.63;;;;;;;;;;5092719;28;20434;-68
2022/07/02 04:35:56;;;;;;;22.00;20.70;;;;;;;;;;5092457;28;20423;-68
2022/07/02 04:38:24;;;;;;;22.30;21.00;;;;;;;;;;5092373;28;20525;-68
2022/07/02 04:40:52;;;;;;;22.33;20.87;;;;;;;;;;5092518;28;20808;-68
2022/07/02 04:43:20;;;;;;;22.37;20.97;;;;;;;;;;5095646;28;20471;-68
2022/07/02 04:45:47;;;;;;;22.03;20.73;;;;;;;;;;5096749;28;20412;-68
2022/07/02 04:48:14;;;;;;;21.13;19.80;;;;;;;;;;5096291;28;20586;-68
2022/07/02 04:50:43;;;;;;;21.83;20.53;;;;;;;;;;5096521;28;20524;-68
2022/07/02 04:53:11;;;;;;;21.83;20.63;;;;;;;;;;5096621;28;20426;-68
2022/07/02 04:55:38;;;;;;;23.30;21.90;;;;;;;;;;5096580;28;20438;-68
2022/07/02 04:58:05;;;;;;;23.40;22.10;;;;;;;;;;5096110;28;20932;-68
2022/07/02 05:00:33;;;;;;;22.60;21.27;;;;;;;;;;5096235;28;20444;-68
2022/07/02 05:03:00;;;;;;;22.20;20.90;;;;;;;;;;5096778;28;20457;-68
2022/07/02 05:05:27;;;;;;;22.90;21.40;;;;;;;;;;5096301;28;20399;-68
2022/07/02 05:07:56;;;;;;;22.20;20.90;;;;;;;;;;5095937;28;20437;-68
2022/07/02 05:10:24;;;;;;;22.40;21.20;;;;;;;;;;5095982;28;20543;-68
2022/07/02 05:12:51;;;;;;;22.77;21.47;;;;;;;;;;5096262;28;20488;-68
2022/07/02 05:15:19;;;;;;;22.30;20.90;;;;;;;;;;5095964;28;20412;-68
2022/07/02 05:17:46;;;;;;;22.67;21.20;;;;;;;;;;5096050;28;20453;-68
2022/07/02 05:20:13;;;;;;;21.67;20.37;;;;;;;;;;5096162;28;20907;-68
2022/07/02 05:22:41;;;;;;;22.37;20.87;;;;;;;;;;5095712;28;20453;-68
2022/07/02 05:25:10;;;;;;;22.23;21.03;;;;;;;;;;5095977;28;20412;-68
2022/07/02 05:27:37;;;;;;;21.73;20.53;;;;;;;;;;5088642;28;20454;-68
2022/07/02 05:30:06;;;;;;;21.13;19.93;;;;;;;;;;5089552;28;20975;-68
2022/07/02 05:32:33;;;;;;;21.37;20.10;;;;;;;;;;5084074;28;20440;-68
2022/07/02 05:35:00;;;;;;;21.03;19.93;;;;;;;;;;5084472;28;20467;-68
2022/07/02 05:37:28;;;;;;;21.17;20.07;;;;;;;;;;5085761;28;20457;-68
2022/07/02 05:39:55;;;;;;;22.37;21.07;;;;;;;;;;5084480;28;20496;-68
2022/07/02 05:42:23;;;;;;;21.53;20.23;;;;;;;;;;5076054;28;20447;-68
2022/07/02 05:44:51;;;;;;;20.80;19.70;;;;;;;;;;5075406;28;20409;-68
2022/07/02 05:47:18;;;;;;;21.77;20.40;;;;;;;;;;5075213;28;20432;-68
2022/07/02 05:49:46;;;;;;;21.70;20.40;;;;;;;;;;5074786;28;20480;-68
2022/07/02 05:52:14;;;;;;;21.63;20.27;;;;;;;;;;5075277;28;20451;-69
2022/07/02 05:54:41;;;;;;;21.50;20.20;;;;;;;;;;5074009;28;20443;-68
2022/07/02 05:57:09;;;;;;;21.43;20.23;;;;;;;;;;5074458;28;20858;-68
2022/07/02 05:59:38;;;;;;;21.33;20.13;;;;;;;;;;5074829;28;20954;-68
2022/07/02 06:02:14;;;;;;;22.90;21.50;;;;;;;;;;5075008;28;20417;-67
2022/07/02 06:04:42;;;;;;;22.30;21.10;;;;;;;;;;5074441;28;20414;-68
2022/07/02 06:10:07;;;;;;;23.33;21.50;;;;;;;;;;5074624;28;20563;-68
2022/07/02 06:12:45;;;;;;;21.83;20.63;;;;;;;;;;5074808;28;20458;-68
2022/07/02 06:15:31;;;;;;;21.27;19.87;;;;;;;;;;5074330;28;20504;-68
2022/07/02 06:18:10;;;;;;;22.07;20.57;;;;;;;;;;5074417;28;20421;-67
2022/07/02 06:20:46;;;;;;;21.23;19.97;;;;;;;;;;5074308;28;20428;-68
2022/07/02 06:23:24;;;;;;;21.10;19.80;;;;;;;;;;5074205;28;20446;-68
2022/07/02 06:26:02;;;;;;;21.87;20.33;;;;;;;;;;5074204;28;20480;-68
2022/07/02 06:28:36;;;;;;;21.70;20.40;;;;;;;;;;5074324;28;20436;-68
2022/07/02 06:31:22;;;;;;;21.20;19.77;;;;;;;;;;5074072;28;20470;-67
2022/07/02 06:33:59;;;;;;;21.67;20.37;;;;;;;;;;5073972;28;20431;-70
2022/07/02 06:36:38;;;;;;;22.53;21.20;;;;;;;;;;5073651;28;20487;-68
2022/07/02 06:39:17;;;;;;;20.73;19.63;;;;;;;;;;5073789;28;20409;-68
2022/07/02 06:44:41;;;;;;;23.50;22.10;;;;;;;;;;5074110;28;20905;-68
2022/07/02 06:47:11;;;;;;;22.67;21.10;;;;;;;;;;5073494;28;20415;-69
2022/07/02 06:49:38;;;;;;;22.87;21.43;;;;;;;;;;5073795;28;20467;-69
2022/07/02 06:52:06;;;;;;;22.47;21.27;;;;;;;;;;5074044;28;20546;-69
2022/07/02 06:54:34;;;;;;;22.27;21.07;;;;;;;;;;5073848;28;20435;-68
2022/07/02 06:57:01;;;;;;;22.23;21.00;;;;;;;;;;5073945;28;20458;-68
2022/07/02 06:59:28;;;;;;;22.30;20.80;;;;;;;;;;5073664;28;20453;-69
2022/07/02 07:01:56;;;;;;;21.67;20.47;;;;;;;;;;5073872;28;20421;-69
2022/07/02 07:04:26;;;;;;;21.87;20.47;;;;;;;;;;5056137;28;20456;-69
2022/07/02 07:06:55;;;;;;;21.53;20.30;;;;;;;;;;5073570;28;20433;-69
2022/07/02 07:09:22;;;;;;;22.40;21.10;;;;;;;;;;5073417;28;20452;-69
2022/07/02 07:11:49;;;;;;;22.60;21.30;;;;;;;;;;5073462;28;20449;-68
2022/07/02 07:14:17;;;;;;;21.60;20.40;;;;;;;;;;5073573;28;20438;-68
2022/07/02 07:16:44;;;;;;;22.23;20.97;;;;;;;;;;5073320;28;20408;-72
2022/07/02 07:19:12;;;;;;;21.70;20.37;;;;;;;;;;5073261;28;20421;-70
2022/07/02 07:21:41;;;;;;;22.07;20.87;;;;;;;;;;5073482;28;20856;-71
2022/07/02 07:24:09;;;;;;;22.40;21.00;;;;;;;;;;5073510;28;20409;-71
2022/07/02 07:26:37;;;;;;;22.00;20.70;;;;;;;;;;5072802;28;20453;-72
2022/07/02 07:29:06;;;;;;;22.63;21.33;;;;;;;;;;5073296;28;20426;-71
2022/07/02 07:31:34;;;;;;;23.00;21.60;;;;;;;;;;5073433;28;20540;-71
2022/07/02 07:34:01;;;;;;;22.03;20.73;;;;;;;;;;5073276;28;20415;-71
2022/07/02 07:36:28;;;;;;;23.30;21.90;;;;;;;;;;5073222;28;20442;-71
2022/07/02 07:38:57;;;;;;;22.53;21.20;;;;;;;;;;5073105;28;20417;-71
2022/07/02 07:41:25;;;;;;;22.00;20.70;;;;;;;;;;5073072;28;20442;-72
2022/07/02 07:43:52;;;;;;;21.87;20.50;;;;;;;;;;5072706;28;20460;-71
2022/07/02 07:46:20;;;;;;;23.87;22.20;;;;;;;;;;5073201;28;20753;-72
2022/07/02 07:48:48;;;;;;;23.13;21.80;;;;;;;;;;5072449;28;20853;-71
2022/07/02 07:51:15;;;;;;;23.27;21.97;;;;;;;;;;5072854;28;20615;-71
2022/07/02 07:53:43;;;;;;;22.30;21.10;;;;;;;;;;5072724;28;20445;-71
2022/07/02 07:56:13;;;;;;;23.13;21.70;;;;;;;;;;5072877;28;20439;-72
2022/07/02 07:58:40;;;;;;;22.73;21.43;;;;;;;;;;5072627;28;20468;-71
2022/07/02 08:01:07;;;;;;;23.27;21.77;;;;;;;;;;5072584;28;20418;-71
2022/07/02 08:03:34;;;;;;;23.33;22.03;;;;;;;;;;5072566;28;21115;-71
2022/07/02 08:06:02;;;;;;;24.30;22.57;;;;;;;;;;5072516;28;20887;-71
2022/07/02 08:08:29;;;;;;;23.87;22.37;;;;;;;;;;5072664;28;20438;-71
2022/07/02 08:10:56;;;;;;;22.90;21.50;;;;;;;;;;5072650;28;20479;-72
2022/07/02 08:13:25;;;;;;;23.63;22.00;;;;;;;;;;5072408;28;20428;-71
2022/07/02 08:15:52;;;;;;;24.13;22.53;;;;;;;;;;5072963;28;20413;-72
2022/07/02 08:18:20;;;;;;;24.77;23.37;;;;;;;;;;5071645;28;20444;-71
2022/07/02 08:20:47;;;;;;;25.20;23.70;;;;;;;;;;5072764;28;20438;-71
2022/07/02 08:23:14;;;;;;;24.10;22.80;;;;;;;;;;5072649;28;20406;-71
2022/07/02 08:25:42;;;;;;;24.10;22.50;;;;;;;;;;5072462;28;20409;-71
2022/07/02 08:28:09;;;;;;;23.47;22.17;;;;;;;;;;5072265;28;20435;-72
2022/07/02 08:30:38;;;;;;;22.57;21.27;;;;;;;;;;5072786;28;20457;-72
2022/07/02 08:33:05;;;;;;;22.87;21.57;;;;;;;;;;5072729;28;20499;-72
2022/07/02 08:35:33;;;;;;;23.37;22.00;;;;;;;;;;5072418;28;20438;-71
2022/07/02 08:38:00;;;;;;;23.40;22.00;;;;;;;;;;5072470;28;20413;-71
2022/07/02 08:40:28;;;;;;;24.13;22.83;;;;;;;;;;5072452;28;20410;-73
2022/07/02 08:42:55;;;;;;;23.67;22.17;;;;;;;;;;5071958;28;21093;-71
2022/07/02 08:45:24;;;;;;;23.37;21.87;;;;;;;;;;5072615;28;20413;-70
2022/07/02 08:47:54;;;;;;;23.47;21.67;;;;;;;;;;5072321;28;20488;-71
2022/07/02 08:50:22;;;;;;;23.40;21.80;;;;;;;;;;5072004;28;20488;-71
2022/07/02 08:52:51;;;;;;;24.50;23.00;;;;;;;;;;5072143;28;20856;-71
2022/07/02 08:55:19;;;;;;;23.93;22.53;;;;;;;;;;5072471;28;20465;-71
2022/07/02 08:57:47;;;;;;;24.03;22.63;;;;;;;;;;5072207;28;20432;-69
2022/07/02 09:00:15;;;;;;;23.80;22.40;;;;;;;;;;5080825;28;20457;-70
2022/07/02 09:02:44;;;;;;;25.23;23.73;;;;;;;;;;5072400;28;20443;-84
2022/07/02 09:05:13;;;;;;;24.90;23.50;;;;;;;;;;5071895;28;20442;-70
2022/07/02 09:07:40;;;;;;;25.70;24.30;;;;;;;;;;5072387;28;20441;-69
2022/07/02 09:10:08;;;;;;;26.17;24.60;;;;;;;;;;5081332;28;20465;-70
2022/07/02 09:12:36;;;;;;;25.93;24.43;;;;;;;;;;5091869;28;20931;-69
2022/07/02 09:15:04;;;;;;;24.37;22.87;;;;;;;;;;5092328;28;20510;-70
2022/07/02 09:17:32;;;;;;;23.33;21.93;;;;;;;;;;5092021;28;20442;-70
2022/07/02 09:19:59;;;;;;;23.20;21.80;;;;;;;;;;5092307;28;20457;-70
2022/07/02 09:22:35;;;;;;;23.40;21.90;;;;;;;;;;5092195;28;20447;-72
2022/07/02 09:25:13;;;;;;;23.40;22.00;;;;;;;;;;5092298;28;20544;-69
2022/07/02 09:27:41;;;;;;;22.83;20.87;;;;;;;;;;5089153;28;20419;-73
2022/07/02 09:30:09;;;;;;;23.57;21.97;;;;;;;;;;5095893;28;20434;-69
2022/07/02 09:32:41;;;;;;;23.83;22.33;;;;;;;;;;5095842;28;20458;-71
2022/07/02 09:35:08;;;;;;;22.53;21.13;;;;;;;;;;5092271;28;20442;-72
2022/07/02 09:37:37;;;;;;;25.53;23.50;;;;;;;;;;5095564;28;20441;-72
2022/07/02 09:40:05;;;;;;;24.20;22.63;;;;;;;;;;5090307;28;20499;-72
2022/07/02 09:42:33;;;;;;;24.83;22.50;;;;;;;;;;5074765;28;20449;-72
2022/07/02 09:45:01;;;;;;;24.13;22.73;;;;;;;;;;5079907;28;20420;-73
2022/07/02 09:47:32;;;;;;;24.10;22.70;;;;;;;;;;5095056;28;20926;-72
2022/07/02 09:50:03;;;;;;;23.87;22.47;;;;;;;;;;5095176;28;20479;-72
2022/07/02 09:52:31;;;;;;;23.80;22.50;;;;;;;;;;5095119;28;20449;-72
2022/07/02 09:55:00;;;;;;;23.70;22.30;;;;;;;;;;5095320;28;20453;-72
2022/07/02 09:57:28;;;;;;;23.20;21.80;;;;;;;;;;5094981;28;20437;-72
2022/07/02 09:59:55;;;;;;;25.27;23.87;;;;;;;;;;5095476;28;20408;-72
2022/07/02 10:02:24;;;;;;;23.10;21.70;;;;;;;;;;5095286;28;20428;-72
2022/07/02 10:04:52;;;;;;;23.33;21.93;;;;;;;;;;5095564;28;20411;-72
2022/07/02 10:07:22;;;;;;;24.70;23.10;;;;;;;;;;5095165;28;20430;-72
2022/07/02 10:09:49;;;;;;;23.97;22.57;;;;;;;;;;5095191;28;20781;-72
2022/07/02 10:12:19;;;;;;;24.17;22.47;;;;;;;;;;5094983;28;20456;-71
2022/07/02 10:14:46;;;;;;;23.40;22.03;;;;;;;;;;5094657;28;20487;-72
2022/07/02 10:17:14;;;;;;;22.43;21.03;;;;;;;;;;5094641;28;20448;-72
2022/07/02 10:19:41;;;;;;;23.57;21.93;;;;;;;;;;5094663;28;20401;-72
2022/07/02 10:22:09;;;;;;;23.53;21.83;;;;;;;;;;5094901;28;20408;-72
2022/07/02 10:24:37;;;;;;;23.00;21.40;;;;;;;;;;5094976;28;20455;-72
2022/07/02 10:27:05;;;;;;;24.77;23.27;;;;;;;;;;5094592;28;20471;-72
2022/07/02 10:29:34;;;;;;;24.07;22.67;;;;;;;;;;5094224;28;20445;-72
2022/07/02 10:32:06;;;;;;;24.00;22.60;;;;;;;;;;5094279;28;20481;-72
2022/07/02 10:34:43;;;;;;;23.70;22.30;;;;;;;;;;5094692;28;20423;-72
2022/07/02 10:37:11;;;;;;;22.70;21.40;;;;;;;;;;5094330;28;20408;-72
2022/07/02 10:39:41;;;;;;;24.10;22.73;;;;;;;;;;5093754;28;20479;-72
2022/07/02 10:42:09;;;;;;;23.40;22.10;;;;;;;;;;5093934;28;20443;-72
2022/07/02 10:44:41;;;;;;;23.43;22.00;;;;;;;;;;5094406;28;20421;-73
2022/07/02 10:47:17;;;;;;;23.60;22.40;;;;;;;;;;5094053;28;20433;-72
2022/07/02 10:49:45;;;;;;;23.87;22.47;;;;;;;;;;5093983;28;20465;-72
2022/07/02 10:52:12;;;;;;;23.87;22.47;;;;;;;;;;5094255;28;20484;-71
2022/07/02 10:54:44;;;;;;;23.50;22.10;;;;;;;;;;5093935;28;20443;-72
2022/07/02 10:57:18;;;;;;;24.03;22.60;;;;;;;;;;5093798;28;20457;-72
2022/07/02 10:59:48;;;;;;;22.80;21.37;;;;;;;;;;5094213;28;20425;-72
2022/07/02 11:02:17;;;;;;;22.57;21.17;;;;;;;;;;5094146;28;20416;-72
2022/07/02 11:04:44;;;;;;;23.20;21.73;;;;;;;;;;5093855;28;20421;-71
2022/07/02 11:07:12;;;;;;;23.90;22.10;;;;;;;;;;5093674;28;20438;-71
2022/07/02 11:09:47;;;;;;;22.17;20.77;;;;;;;;;;5093894;28;20405;-72
2022/07/02 11:12:14;;;;;;;21.87;20.67;;;;;;;;;;5093618;28;20474;-72
2022/07/02 11:14:53;;;;;;;22.27;20.87;;;;;;;;;;5094412;28;20416;-71
2022/07/02 11:17:23;;;;;;;21.93;20.57;;;;;;;;;;5093648;28;20799;-76
2022/07/02 11:19:54;;;;;;;22.37;20.93;;;;;;;;;;5093573;28;20422;-73
2022/07/02 11:22:22;;;;;;;23.30;22.00;;;;;;;;;;5093433;28;20774;-68
2022/07/02 11:24:49;;;;;;;22.70;21.40;;;;;;;;;;5092915;28;20468;-70
2022/07/02 11:27:16;;;;;;;22.33;20.83;;;;;;;;;;5091813;28;20828;-73
2022/07/02 11:29:53;;;;;;;23.50;22.10;;;;;;;;;;5092747;28;20884;-71
2022/07/02 11:32:22;;;;;;;22.67;21.37;;;;;;;;;;5092508;28;21290;-71
2022/07/02 11:34:59;;;;;;;22.43;21.03;;;;;;;;;;5092944;28;20962;-72
2022/07/02 11:37:26;;;;;;;22.57;21.17;;;;;;;;;;5092248;28;20948;-72
2022/07/02 11:39:53;;;;;;;24.07;22.40;;;;;;;;;;5092909;28;20438;-70
2022/07/02 11:42:35;;;;;;;22.47;21.17;;;;;;;;;;5092524;28;20451;-72
2022/07/02 11:45:02;;;;;;;23.60;21.93;;;;;;;;;;5092820;28;20961;-71
2022/07/02 11:47:31;;;;;;;22.70;21.37;;;;;;;;;;5092789;28;20441;-71
2022/07/02 11:49:59;;;;;;;22.93;21.43;;;;;;;;;;5092716;28;20484;-70
2022/07/02 11:52:27;;;;;;;23.33;21.87;;;;;;;;;;5091844;28;20481;-70
2022/07/02 11:54:55;;;;;;;23.37;21.87;;;;;;;;;;5093314;28;20445;-71
2022/07/02 11:57:32;;;;;;;22.37;21.17;;;;;;;;;;5093200;28;20784;-70
2022/07/02 11:59:59;;;;;;;23.20;21.73;;;;;;;;;;5093238;28;20416;-70
2022/07/02 12:02:37;;;;;;;23.37;22.07;;;;;;;;;;5093130;28;20429;-71
2022/07/02 12:05:15;;;;;;;22.13;20.83;;;;;;;;;;5092843;28;20482;-71
2022/07/02 12:07:43;;;;;;;22.47;21.20;;;;;;;;;;5092696;28;20419;-71
2022/07/02 12:10:11;;;;;;;23.07;21.77;;;;;;;;;;5092968;28;20450;-73
2022/07/02 12:12:38;;;;;;;23.67;22.27;;;;;;;;;;5092555;28;20458;-72
2022/07/02 12:15:06;;;;;;;22.40;21.10;;;;;;;;;;5092969;28;20449;-73
2022/07/02 12:17:35;;;;;;;23.07;21.60;;;;;;;;;;5092906;28;20437;-73
2022/07/02 12:20:03;;;;;;;22.27;20.87;;;;;;;;;;5092992;28;20727;-73
2022/07/02 12:22:33;;;;;;;22.60;21.30;;;;;;;;;;5091538;28;20420;-74
2022/07/02 12:25:01;;;;;;;23.40;22.03;;;;;;;;;;5080488;28;21051;-72
2022/07/02 12:27:32;;;;;;;23.13;21.70;;;;;;;;;;5073834;28;20421;-72
2022/07/02 12:30:04;;;;;;;22.90;21.60;;;;;;;;;;5072442;28;20473;-72
2022/07/02 12:32:33;;;;;;;23.90;22.10;;;;;;;;;;5072083;28;20547;-72
2022/07/02 12:35:01;;;;;;;22.50;21.20;;;;;;;;;;5072532;28;20437;-72
2022/07/02 12:37:30;;;;;;;23.20;21.80;;;;;;;;;;5072106;28;20780;-73
2022/07/02 12:40:02;;;;;;;24.00;22.60;;;;;;;;;;5072102;28;20459;-73
2022/07/02 12:42:31;;;;;;;23.77;22.27;;;;;;;;;;5072084;28;20444;-72
2022/07/02 12:44:59;;;;;;;22.73;21.27;;;;;;;;;;5072502;28;20804;-72
2022/07/02 12:47:28;;;;;;;23.50;22.13;;;;;;;;;;5071852;28;20411;-71
2022/07/02 12:49:56;;;;;;;24.20;22.70;;;;;;;;;;5072142;28;20519;-72
2022/07/02 12:52:24;;;;;;;23.30;21.90;;;;;;;;;;5072243;28;20784;-72
2022/07/02 12:54:54;;;;;;;24.33;22.33;;;;;;;;;;5072000;28;20416;-72
2022/07/02 12:57:24;;;;;;;22.90;21.50;;;;;;;;;;5072248;28;20457;-72
2022/07/02 12:59:55;;;;;;;24.97;22.60;;;;;;;;;;5071988;28;20886;-72
2022/07/02 13:02:24;;;;;;;23.73;22.13;;;;;;;;;;5072164;28;20428;-72
2022/07/02 13:04:51;;;;;;;23.80;22.30;;;;;;;;;;5075882;28;20431;-72
2022/07/02 13:07:19;;;;;;;22.63;21.13;;;;;;;;;;5076001;28;20413;-72
2022/07/02 13:09:47;;;;;;;22.53;21.23;;;;;;;;;;5076079;28;20449;-72
2022/07/02 13:12:16;;;;;;;22.40;21.10;;;;;;;;;;5075999;28;20467;-72
2022/07/02 13:14:46;;;;;;;22.60;21.20;;;;;;;;;;5076013;28;20466;-72
2022/07/02 13:17:14;;;;;;;22.80;21.50;;;;;;;;;;5075386;28;20474;-72
2022/07/02 13:19:44;;;;;;;24.50;23.10;;;;;;;;;;5075517;28;20459;-72
2022/07/02 13:22:12;;;;;;;21.97;20.77;;;;;;;;;;5075642;28;20451;-72
2022/07/02 13:24:39;;;;;;;22.77;21.37;;;;;;;;;;5075761;28;20405;-72
2022/07/02 13:27:07;;;;;;;22.70;21.43;;;;;;;;;;5075247;28;20416;-72
2022/07/02 13:29:34;;;;;;;21.97;20.77;;;;;;;;;;5075456;28;20409;-72
2022/07/02 13:32:04;;;;;;;23.00;21.70;;;;;;;;;;5075080;28;20461;-72
2022/07/02 13:34:31;;;;;;;23.93;22.63;;;;;;;;;;5075642;28;20740;-72
2022/07/02 13:36:58;;;;;;;23.60;22.17;;;;;;;;;;5075442;28;20427;-72
2022/07/02 13:39:27;;;;;;;22.67;21.47;;;;;;;;;;5075503;28;20414;-72
2022/07/02 13:41:55;;;;;;;24.33;22.67;;;;;;;;;;5075395;28;20452;-72
2022/07/02 13:44:22;;;;;;;22.10;20.90;;;;;;;;;;5075417;28;20435;-72
2022/07/02 13:46:50;;;;;;;23.27;21.80;;;;;;;;;;5075318;28;20438;-71
2022/07/02 13:49:18;;;;;;;23.80;22.33;;;;;;;;;;5074904;28;20483;-73
2022/07/02 13:51:46;;;;;;;23.90;22.20;;;;;;;;;;5074884;28;20486;-72
2022/07/02 13:54:13;;;;;;;23.30;22.00;;;;;;;;;;5075329;28;20416;-72
2022/07/02 13:56:40;;;;;;;23.13;21.80;;;;;;;;;;5075074;28;20405;-72
2022/07/02 13:59:08;;;;;;;22.20;21.00;;;;;;;;;;5074829;28;20442;-72
2022/07/02 14:01:35;;;;;;;23.20;21.90;;;;;;;;;;5074663;28;20923;-73
2022/07/02 14:07:06;;;;;;;22.30;21.00;;;;;;;;;;5071702;28;20918;-72
2022/07/02 14:09:35;;;;;;;22.30;20.90;;;;;;;;;;5074969;28;20438;-72
2022/07/02 14:12:04;;;;;;;23.03;21.60;;;;;;;;;;5074458;28;20478;-72
2022/07/02 14:14:31;;;;;;;21.53;20.23;;;;;;;;;;5073890;28;20493;-72
2022/07/02 14:16:59;;;;;;;23.50;22.10;;;;;;;;;;5074618;28;20438;-72
2022/07/02 14:19:29;;;;;;;23.03;21.63;;;;;;;;;;5074175;28;20474;-72
2022/07/02 14:21:56;;;;;;;24.53;23.13;;;;;;;;;;5074637;28;20425;-72
2022/07/02 14:24:25;;;;;;;23.63;22.13;;;;;;;;;;5074331;28;20492;-73
2022/07/02 14:26:52;;;;;;;22.23;20.97;;;;;;;;;;5074457;28;20424;-72
2022/07/02 14:29:20;;;;;;;22.73;21.20;;;;;;;;;;5074552;28;20446;-72
2022/07/02 14:31:50;;;;;;;23.30;21.80;;;;;;;;;;5074140;28;20522;-72
2022/07/02 14:34:18;;;;;;;29.00;26.70;;;;;;;;;;5074048;28;20513;-72
2022/07/02 14:36:46;;;;;;;24.67;23.07;;;;;;;;;;5073884;28;20808;-72
2022/07/02 14:39:15;;;;;;;22.80;21.50;;;;;;;;;;5073849;28;20409;-72